Time;durP1;ratioP1;P1;durP2;ratioP2;P2;SDS_P1;SDS_P2;PMS_P1;PMS_P2;Temp;Humidity;BMP_temperature;BMP_pressure;BME280_temperature;BME280_humidity;BME280_pressure;Samples;Min_cycle;Max_cycle;Signal;HPM_P1;HPM_P2
2023/05/04 00:00:46;;;;;;;49.65;31.52;;;29.90;91.70;;;;;;1829967;77;21169;-86
2023/05/04 00:03:17;;;;;;;45.10;31.12;;;29.90;91.70;;;;;;1834398;76;21545;-85
2023/05/04 00:05:48;;;;;;;47.33;30.72;;;29.90;91.70;;;;;;1886585;75;21147;-86
2023/05/04 00:08:19;;;;;;;46.02;31.40;;;29.90;91.60;;;;;;1885194;75;21157;-85
2023/05/04 00:10:51;;;;;;;48.25;30.05;;;30.00;91.60;;;;;;1834389;77;21801;-84
2023/05/04 00:13:22;;;;;;;44.18;30.05;;;30.00;91.50;;;;;;1817338;76;21426;-85
2023/05/04 00:15:53;;;;;;;40.88;29.32;;;30.10;91.50;;;;;;1831331;77;21189;-83
2023/05/04 00:18:24;;;;;;;41.75;28.17;;;30.10;91.40;;;;;;1798383;78;21165;-86
2023/05/04 00:20:55;;;;;;;62.83;45.45;;;30.10;91.30;;;;;;1834021;76;21149;-84
2023/05/04 00:23:26;;;;;;;41.48;28.65;;;30.10;91.30;;;;;;1834397;77;21181;-85
2023/05/04 00:25:59;;;;;;;36.68;27.85;;;30.20;91.10;;;;;;1830043;77;21637;-84
2023/05/04 00:28:30;;;;;;;38.55;29.37;;;30.20;91.20;;;;;;1845595;77;21582;-85
2023/05/04 00:31:02;;;;;;;42.23;28.30;;;30.20;91.10;;;;;;1840475;77;21636;-84
2023/05/04 00:33:40;;;;;;;32.98;25.77;;;30.20;91.20;;;;;;1826510;78;21111;-86
2023/05/04 00:36:08;;;;;;;36.77;26.93;;;30.30;90.80;;;;;;1828158;77;21107;-86
2023/05/04 00:38:48;;;;;;;33.65;25.88;;;30.40;90.70;;;;;;1828907;77;21146;-85
2023/05/04 00:41:21;;;;;;;38.13;24.65;;;30.40;90.50;;;;;;1820865;77;21592;-84
2023/05/04 00:43:52;;;;;;;30.60;24.25;;;30.50;90.30;;;;;;1843219;77;21167;-86
2023/05/04 00:46:23;;;;;;;34.58;25.30;;;30.60;90.10;;;;;;1825736;77;21162;-84
2023/05/04 00:48:55;;;;;;;31.75;24.35;;;30.60;90.10;;;;;;1826234;77;21224;-86
2023/05/04 00:51:26;;;;;;;32.15;24.32;;;30.70;90.10;;;;;;1837981;77;21166;-84
2023/05/04 00:53:58;;;;;;;36.58;24.25;;;30.80;90.00;;;;;;1839794;77;21103;-83
2023/05/04 00:56:31;;;;;;;33.67;24.20;;;30.80;89.70;;;;;;1839671;77;21135;-83
2023/05/04 00:59:02;;;;;;;31.00;24.87;;;30.90;89.70;;;;;;1840450;76;21197;-86
2023/05/04 01:01:33;;;;;;;31.95;24.00;;;31.00;89.70;;;;;;1834977;77;21523;-74
2023/05/04 01:04:05;;;;;;;33.42;23.77;;;31.00;89.60;;;;;;1832171;77;21119;-76
2023/05/04 01:06:46;;;;;;;35.60;26.52;;;31.10;89.50;;;;;;1836678;77;21162;-74
2023/05/04 01:09:25;;;;;;;33.28;22.75;;;31.10;89.10;;;;;;1826920;77;21547;-73
2023/05/04 01:12:07;;;;;;;29.27;22.65;;;31.20;88.40;;;;;;1829801;77;21606;-75
2023/05/04 01:14:41;;;;;;;32.50;23.50;;;31.30;88.20;;;;;;1842632;77;21159;-75
2023/05/04 01:17:12;;;;;;;30.80;22.55;;;31.30;88.20;;;;;;1827936;77;21189;-73
2023/05/04 01:19:44;;;;;;;36.38;26.93;;;31.30;87.60;;;;;;1827091;77;21130;-73
2023/05/04 01:22:15;;;;;;;38.53;26.75;;;31.40;87.50;;;;;;1831412;77;21272;-74
2023/05/04 01:24:46;;;;;;;34.25;23.25;;;31.50;87.30;;;;;;1830437;77;21275;-78
2023/05/04 01:27:26;;;;;;;28.83;22.48;;;31.60;86.90;;;;;;1823690;77;21212;-77
2023/05/04 01:30:15;;;;;;;32.38;23.70;;;31.70;87.10;;;;;;1832912;77;21099;-76
2023/05/04 01:32:47;;;;;;;29.82;23.52;;;31.80;86.90;;;;;;1830756;77;21689;-76
2023/05/04 01:35:18;;;;;;;30.90;22.55;;;31.90;87.10;;;;;;1804601;77;21528;-74
2023/05/04 01:37:49;;;;;;;28.50;22.30;;;32.00;85.70;;;;;;1801958;77;21174;-75
2023/05/04 01:40:22;;;;;;;27.07;20.48;;;32.10;85.90;;;;;;1834091;77;21103;-75
2023/05/04 01:42:53;;;;;;;33.00;23.15;;;32.20;85.30;;;;;;1796740;78;21186;-75
2023/05/04 01:45:24;;;;;;;33.53;22.90;;;32.30;84.30;;;;;;1838438;76;21585;-77
2023/05/04 01:47:56;;;;;;;34.27;21.60;;;32.40;84.50;;;;;;1816154;77;21170;-76
2023/05/04 01:50:27;;;;;;;28.42;21.20;;;32.40;84.40;;;;;;1881209;75;21091;-75
2023/05/04 01:52:59;;;;;;;27.82;20.15;;;32.60;83.60;;;;;;1868695;76;21127;-76
2023/05/04 01:55:30;;;;;;;25.68;21.17;;;32.70;83.30;;;;;;1867406;76;21559;-75
2023/05/04 01:58:01;;;;;;;24.75;19.73;;;32.70;83.00;;;;;;1877359;75;21138;-76
2023/05/04 02:00:32;;;;;;;23.42;19.00;;;32.90;82.70;;;;;;1797915;79;21122;-76
2023/05/04 02:03:08;;;;;;;25.72;20.05;;;33.00;81.30;;;;;;1814440;77;21140;-77
2023/05/04 02:05:39;;;;;;;26.65;21.25;;;33.10;81.00;;;;;;1785577;79;21131;-76
2023/05/04 02:08:10;;;;;;;22.60;18.12;;;33.10;81.30;;;;;;1875527;75;21187;-75
2023/05/04 02:10:42;;;;;;;27.07;18.00;;;33.20;80.70;;;;;;1866832;76;21123;-76
2023/05/04 02:13:13;;;;;;;25.35;19.00;;;33.30;79.20;;;;;;1862085;76;21095;-73
2023/05/04 02:15:45;;;;;;;24.27;18.70;;;33.50;79.90;;;;;;1867329;75;21219;-76
2023/05/04 02:18:17;;;;;;;26.12;19.12;;;33.60;78.80;;;;;;1876636;76;21264;-74
2023/05/04 02:20:48;;;;;;;23.20;18.10;;;33.70;78.20;;;;;;1856834;76;21126;-75
2023/05/04 02:23:19;;;;;;;23.38;18.65;;;33.80;76.70;;;;;;1869083;76;21211;-75
2023/05/04 02:25:50;;;;;;;24.15;17.48;;;33.90;76.70;;;;;;1878435;75;21542;-74
2023/05/04 02:28:23;;;;;;;21.90;17.65;;;34.00;75.90;;;;;;1859853;76;21098;-76
2023/05/04 02:30:54;;;;;;;26.95;19.77;;;34.10;76.00;;;;;;1869621;75;21112;-76
2023/05/04 02:33:28;;;;;;;28.00;19.30;;;34.10;75.80;;;;;;1863966;75;21123;-74
2023/05/04 02:36:02;;;;;;;21.02;18.35;;;34.20;75.20;;;;;;1861941;76;21119;-73
2023/05/04 02:38:34;;;;;;;26.40;20.97;;;34.30;75.00;;;;;;1860030;77;21644;-75
2023/05/04 02:41:05;;;;;;;25.30;19.98;;;34.40;75.00;;;;;;1872100;75;21731;-75
2023/05/04 02:43:36;;;;;;;26.48;19.62;;;34.50;75.10;;;;;;1856417;77;21683;-75
2023/05/04 02:46:08;;;;;;;24.30;20.55;;;34.60;74.10;;;;;;1872993;76;21131;-77
2023/05/04 02:48:40;;;;;;;27.42;18.82;;;34.70;73.90;;;;;;1875521;75;21100;-75
2023/05/04 02:51:11;;;;;;;24.87;18.37;;;34.80;73.30;;;;;;1895215;74;21079;-74
2023/05/04 02:53:46;;;;;;;25.43;18.48;;;34.90;73.40;;;;;;1877816;75;22246;-74
2023/05/04 02:56:19;;;;;;;22.05;18.50;;;35.00;73.20;;;;;;1881789;74;21151;-74
2023/05/04 02:58:50;;;;;;;24.57;18.32;;;35.10;72.20;;;;;;1895527;74;21574;-73
2023/05/04 03:01:21;;;;;;;27.13;19.17;;;35.10;71.60;;;;;;1862009;76;21161;-74
2023/05/04 03:03:52;;;;;;;24.00;17.95;;;35.20;70.90;;;;;;1902605;74;21147;-73
2023/05/04 03:06:24;;;;;;;29.07;22.02;;;35.30;70.50;;;;;;1884265;74;21205;-75
2023/05/04 03:08:55;;;;;;;21.60;18.65;;;35.40;71.10;;;;;;1890943;74;22303;-75
2023/05/04 03:11:26;;;;;;;24.20;17.92;;;35.50;70.40;;;;;;1891949;74;21104;-75
2023/05/04 03:13:58;;;;;;;21.40;18.30;;;35.60;69.90;;;;;;1905928;74;21138;-75
2023/05/04 03:16:30;;;;;;;23.32;18.20;;;35.70;69.60;;;;;;1847249;76;21118;-75
2023/05/04 03:19:01;;;;;;;21.50;18.37;;;35.70;68.30;;;;;;1803517;78;21227;-75
2023/05/04 03:21:32;;;;;;;27.77;19.77;;;35.80;68.30;;;;;;1891638;74;21068;-75
2023/05/04 03:24:03;;;;;;;23.18;18.42;;;35.90;67.50;;;;;;1887272;74;21189;-77
2023/05/04 03:26:35;;;;;;;29.05;19.00;;;36.00;68.10;;;;;;1894185;74;21180;-74
2023/05/04 03:29:06;;;;;;;26.37;18.80;;;36.00;67.10;;;;;;1906319;74;21676;-76
2023/05/04 03:31:38;;;;;;;20.30;18.10;;;36.10;67.40;;;;;;1892277;74;21147;-74
2023/05/04 03:34:11;;;;;;;23.60;18.98;;;36.10;66.70;;;;;;1887850;74;21200;-74
2023/05/04 03:36:42;;;;;;;22.17;17.32;;;36.20;66.50;;;;;;1896990;74;21089;-73
2023/05/04 03:39:20;;;;;;;20.75;17.30;;;36.20;67.50;;;;;;1892280;74;21174;-75
2023/05/04 03:41:48;;;;;;;22.02;17.48;;;36.30;66.00;;;;;;1895546;75;21586;-74
2023/05/04 03:44:19;;;;;;;20.45;14.55;;;36.30;65.90;;;;;;1888521;75;21713;-74
2023/05/04 03:46:50;;;;;;;21.00;16.37;;;36.40;62.30;;;;;;1884161;75;21187;-76
2023/05/04 03:49:21;;;;;;;18.40;15.55;;;36.40;61.80;;;;;;1880066;75;21201;-74
2023/05/04 03:51:53;;;;;;;20.50;16.40;;;36.50;62.10;;;;;;1876943;75;21203;-74
2023/05/04 03:54:25;;;;;;;23.83;17.00;;;36.50;63.30;;;;;;1871352;75;21145;-75
2023/05/04 03:56:56;;;;;;;21.02;17.05;;;36.60;63.10;;;;;;1882688;75;21165;-73
2023/05/04 03:59:27;;;;;;;19.05;16.10;;;36.60;64.20;;;;;;1872980;75;21113;-74
2023/05/04 04:01:59;;;;;;;22.70;18.07;;;36.70;62.70;;;;;;1880611;75;21175;-74
2023/05/04 04:04:30;;;;;;;26.12;16.75;;;36.70;63.00;;;;;;1879398;75;21174;-74
2023/05/04 04:07:01;;;;;;;19.90;15.90;;;36.90;64.10;;;;;;1883769;75;21137;-74
2023/05/04 04:09:33;;;;;;;22.22;17.20;;;37.00;64.20;;;;;;1865253;75;21546;-77
2023/05/04 04:12:08;;;;;;;17.05;15.25;;;37.10;62.90;;;;;;1873288;75;21241;-76
2023/05/04 04:14:36;;;;;;;22.82;15.18;;;37.10;62.20;;;;;;1872043;75;21235;-75
2023/05/04 04:17:11;;;;;;;18.67;14.00;;;37.10;61.00;;;;;;1871811;75;21111;-75
2023/05/04 04:19:42;;;;;;;17.95;14.78;;;37.20;60.00;;;;;;1864931;75;21084;-75
2023/05/04 04:22:13;;;;;;;19.85;14.60;;;37.20;59.40;;;;;;1873829;75;21150;-75
2023/05/04 04:24:48;;;;;;;17.35;14.43;;;37.20;59.20;;;;;;1882549;75;21066;-76
2023/05/04 04:27:20;;;;;;;17.52;15.53;;;37.30;60.00;;;;;;1869631;75;21203;-74
2023/05/04 04:29:51;;;;;;;19.60;15.95;;;37.30;59.50;;;;;;1874682;75;21084;-75
2023/05/04 04:32:22;;;;;;;28.17;16.23;;;37.30;59.50;;;;;;1880927;75;21117;-76
2023/05/04 04:34:54;;;;;;;18.70;14.73;;;37.30;59.80;;;;;;1871076;75;21083;-75
2023/05/04 04:37:25;;;;;;;19.48;12.98;;;37.40;59.20;;;;;;1866933;75;21197;-75
2023/05/04 04:40:00;;;;;;;19.87;15.78;;;37.50;58.50;;;;;;1878781;75;21165;-75
2023/05/04 04:42:31;;;;;;;19.80;13.60;;;37.50;58.40;;;;;;1878008;75;21114;-74
2023/05/04 04:45:04;;;;;;;16.90;14.73;;;37.50;57.90;;;;;;1873690;75;21127;-77
2023/05/04 04:47:35;;;;;;;17.85;14.85;;;37.60;57.50;;;;;;1872427;75;21145;-74
2023/05/04 04:50:07;;;;;;;16.65;13.35;;;37.70;57.20;;;;;;1884146;74;21259;-74
2023/05/04 04:52:40;;;;;;;18.92;14.07;;;37.70;56.30;;;;;;1880787;75;21645;-75
2023/05/04 04:55:12;;;;;;;17.90;13.65;;;37.50;57.80;;;;;;1890183;75;21136;-74
2023/05/04 04:57:43;;;;;;;18.82;14.55;;;37.50;56.60;;;;;;1874916;74;21153;-74
2023/05/04 05:00:15;;;;;;;15.08;12.80;;;37.50;57.30;;;;;;1878362;75;21622;-74
2023/05/04 05:02:46;;;;;;;17.23;13.70;;;37.60;57.80;;;;;;1880830;75;21207;-79
2023/05/04 05:05:18;;;;;;;17.15;13.50;;;37.60;58.00;;;;;;1881180;75;21126;-83
2023/05/04 05:07:49;;;;;;;16.05;13.62;;;37.60;57.70;;;;;;1884386;75;21153;-83
2023/05/04 05:10:22;;;;;;;21.05;14.30;;;37.70;57.80;;;;;;1877478;75;21192;-84
2023/05/04 05:12:53;;;;;;;15.15;12.90;;;37.80;57.30;;;;;;1874985;75;21138;-81
2023/05/04 05:15:24;;;;;;;20.55;14.65;;;37.80;57.40;;;;;;1893743;75;21168;-82
2023/05/04 05:18:00;;;;;;;24.40;15.28;;;37.70;55.80;;;;;;1887405;75;21098;-82
2023/05/04 05:20:52;;;;;;;19.67;14.43;;;37.60;56.50;;;;;;1847128;76;21318;-82
2023/05/04 05:23:24;;;;;;;15.70;13.43;;;37.60;57.40;;;;;;1821134;78;21980;-81
2023/05/04 05:25:55;;;;;;;16.85;14.55;;;37.60;57.10;;;;;;1869113;77;21157;-82
2023/05/04 05:28:36;;;;;;;19.77;14.60;;;37.70;57.40;;;;;;1829053;78;21159;-82
2023/05/04 05:31:03;;;;;;;15.90;12.98;;;37.70;57.60;;;;;;1864348;75;21207;-84
2023/05/04 05:33:33;;;;;;;13.93;12.25;;;37.60;58.10;;;;;;1866685;77;21086;-83
2023/05/04 05:36:04;;;;;;;18.52;13.88;;;37.50;58.10;;;;;;1869457;77;21122;-82
2023/05/04 05:38:36;;;;;;;22.42;14.55;;;37.30;58.10;;;;;;1868898;77;21098;-83
2023/05/04 05:41:08;;;;;;;17.27;14.03;;;37.20;58.00;;;;;;1866358;76;21524;-82
2023/05/04 05:43:40;;;;;;;19.10;14.53;;;37.30;57.40;;;;;;1871239;75;21172;-83
2023/05/04 05:46:11;;;;;;;17.00;12.65;;;37.30;58.20;;;;;;1888757;75;21066;-83
2023/05/04 05:48:43;;;;;;;16.62;14.75;;;37.40;57.40;;;;;;1885172;75;21144;-83
2023/05/04 05:51:14;;;;;;;18.67;13.08;;;37.50;57.40;;;;;;1881025;75;21203;-82
2023/05/04 05:53:45;;;;;;;15.83;13.80;;;37.60;58.10;;;;;;1890157;75;21747;-80
2023/05/04 05:56:17;;;;;;;18.73;13.30;;;37.70;56.80;;;;;;1878966;75;21093;-82
2023/05/04 05:58:49;;;;;;;20.97;13.35;;;37.70;56.60;;;;;;1869011;77;21122;-83
2023/05/04 06:01:21;;;;;;;16.75;13.70;;;37.60;57.20;;;;;;1883150;75;21236;-83
2023/05/04 06:03:53;;;;;;;16.42;12.63;;;37.50;56.70;;;;;;1878175;75;21132;-82
2023/05/04 06:06:24;;;;;;;18.77;13.08;;;37.60;56.70;;;;;;1880368;74;21185;-82
2023/05/04 06:08:56;;;;;;;18.92;13.98;;;37.70;56.40;;;;;;1877047;74;21191;-83
2023/05/04 06:11:32;;;;;;;18.10;13.53;;;37.80;56.70;;;;;;1869259;75;21141;-83
2023/05/04 06:14:04;;;;;;;20.65;13.00;;;37.80;55.90;;;;;;1853720;76;21189;-82
2023/05/04 06:16:35;;;;;;;17.27;12.80;;;37.90;55.40;;;;;;1807580;78;21165;-82
2023/05/04 06:19:06;;;;;;;14.65;11.97;;;38.00;55.70;;;;;;1824589;78;21472;-83
2023/05/04 06:21:37;;;;;;;15.63;11.75;;;38.00;54.60;;;;;;1824941;78;21209;-82
2023/05/04 06:24:09;;;;;;;15.75;11.90;;;38.00;55.10;;;;;;1822568;78;21201;-82
2023/05/04 06:26:40;;;;;;;15.00;12.23;;;38.10;55.20;;;;;;1870134;75;21149;-84
2023/05/04 06:29:17;;;;;;;16.77;12.88;;;38.00;54.40;;;;;;1870423;75;21177;-83
2023/05/04 06:31:49;;;;;;;20.60;13.98;;;37.90;55.20;;;;;;1827041;78;21132;-82
2023/05/04 06:34:20;;;;;;;14.13;12.63;;;37.90;55.20;;;;;;1823967;78;21071;-82
2023/05/04 06:36:51;;;;;;;19.52;12.90;;;37.90;55.10;;;;;;1822537;78;21166;-83
2023/05/04 06:39:22;;;;;;;17.15;13.45;;;37.90;54.40;;;;;;1851139;77;21079;-82
2023/05/04 06:41:55;;;;;;;14.58;11.83;;;37.90;54.60;;;;;;1802683;76;21239;-83
2023/05/04 06:44:26;;;;;;;19.87;12.58;;;37.90;55.30;;;;;;1840304;77;21142;-83
2023/05/04 06:46:57;;;;;;;16.02;11.65;;;37.90;54.80;;;;;;1813618;78;21779;-83
2023/05/04 06:49:32;;;;;;;23.83;15.00;;;38.00;54.70;;;;;;1828899;77;21150;-82
2023/05/04 06:52:03;;;;;;;16.87;12.43;;;38.00;54.10;;;;;;1925112;74;21162;-82
2023/05/04 06:54:34;;;;;;;15.50;13.13;;;38.00;53.80;;;;;;1861857;76;21080;-83
2023/05/04 06:57:05;;;;;;;18.27;13.45;;;38.10;54.20;;;;;;1859859;76;21079;-82
2023/05/04 06:59:37;;;;;;;16.15;12.80;;;38.10;54.40;;;;;;1859122;76;21120;-83
2023/05/04 07:02:10;;;;;;;14.45;12.20;;;38.10;53.70;;;;;;1878093;76;21309;-84
2023/05/04 07:04:41;;;;;;;14.58;12.33;;;38.10;54.50;;;;;;1871806;76;21238;-82
2023/05/04 07:07:21;;;;;;;13.20;11.50;;;38.00;55.00;;;;;;1870400;76;21127;-83
2023/05/04 07:09:49;;;;;;;16.50;13.30;;;38.00;53.70;;;;;;1923297;74;21112;-82
2023/05/04 07:12:22;;;;;;;26.55;14.73;;;38.00;54.30;;;;;;1886225;76;21117;-83
2023/05/04 07:15:00;;;;;;;14.68;12.05;;;37.90;54.40;;;;;;1870172;75;21162;-82
2023/05/04 07:17:35;;;;;;;32.33;14.80;;;37.90;53.90;;;;;;1851072;76;21095;-82
2023/05/04 07:20:20;;;;;;;14.33;12.83;;;37.80;54.60;;;;;;1863934;76;21161;-82
2023/05/04 07:22:53;;;;;;;21.55;14.00;;;37.70;54.70;;;;;;1880815;76;21718;-84
2023/05/04 07:25:45;;;;;;;21.07;12.65;;;37.70;54.80;;;;;;1870972;76;21224;-83
2023/05/04 07:28:06;;;;;;;20.12;13.22;;;37.60;54.20;;;;;;1862893;76;21566;-81
2023/05/04 07:30:39;;;;;;;14.53;12.95;;;37.60;54.30;;;;;;1871088;76;21189;-82
2023/05/04 07:33:10;;;;;;;13.62;12.23;;;37.50;54.20;;;;;;1879331;76;21219;-83
2023/05/04 07:35:41;;;;;;;17.32;12.35;;;37.50;54.60;;;;;;1876054;76;21206;-83
2023/05/04 07:38:21;;;;;;;18.87;12.47;;;37.40;54.30;;;;;;1878399;76;21108;-83
2023/05/04 07:40:56;;;;;;;20.17;12.93;;;37.30;55.00;;;;;;1886912;75;21158;-82
2023/05/04 07:43:28;;;;;;;13.68;12.28;;;37.30;55.00;;;;;;1889578;76;21183;-82
2023/05/04 07:46:07;;;;;;;18.25;12.30;;;37.30;54.50;;;;;;1893361;76;21137;-82
2023/05/04 07:48:37;;;;;;;15.63;12.55;;;37.20;55.00;;;;;;1877014;75;21185;-82
2023/05/04 07:51:13;;;;;;;14.05;12.58;;;37.20;54.30;;;;;;1887658;75;21499;-83
2023/05/04 07:53:43;;;;;;;;;;;37.20;55.00;;;;;;1909171;74;21146;-82
2023/05/04 07:56:14;;;;;;;19.52;12.78;;;37.10;56.20;;;;;;1897118;74;20661;-82
2023/05/04 07:58:46;;;;;;;16.20;12.53;;;37.10;55.60;;;;;;1824738;78;21169;-82
2023/05/04 08:01:17;;;;;;;17.35;13.05;;;37.10;54.90;;;;;;1901111;74;21138;-82
2023/05/04 08:03:49;;;;;;;19.32;13.18;;;37.10;55.30;;;;;;1868158;76;21618;-83
2023/05/04 08:06:20;;;;;;;18.00;12.95;;;37.10;55.10;;;;;;1870461;76;21154;-84
2023/05/04 08:08:52;;;;;;;15.83;12.47;;;37.10;54.70;;;;;;1824304;77;21173;-82
2023/05/04 08:11:23;;;;;;;16.60;13.62;;;37.10;54.80;;;;;;1835272;77;21130;-82
2023/05/04 08:13:55;;;;;;;17.23;13.03;;;37.10;54.50;;;;;;1822012;77;21302;-83
2023/05/04 08:16:28;;;;;;;18.82;13.05;;;37.10;54.60;;;;;;1842717;77;21086;-83
2023/05/04 08:19:00;;;;;;;18.27;13.18;;;37.00;55.00;;;;;;1834860;77;21508;-83
2023/05/04 08:21:31;;;;;;;18.48;14.10;;;37.00;54.80;;;;;;1823706;78;21142;-81
2023/05/04 08:24:03;;;;;;;24.25;13.78;;;37.00;54.40;;;;;;1831462;78;21185;-83
2023/05/04 08:26:35;;;;;;;17.95;14.00;;;37.00;55.10;;;;;;1881954;76;21614;-81
2023/05/04 08:29:09;;;;;;;26.62;17.48;;;37.00;54.60;;;;;;1826393;77;21720;-82
2023/05/04 08:31:40;;;;;;;33.02;16.75;;;36.90;55.10;;;;;;1858592;76;21190;-81
2023/05/04 08:34:15;;;;;;;19.90;14.10;;;37.00;55.10;;;;;;1855345;77;21079;-82
2023/05/04 08:36:48;;;;;;;18.15;13.72;;;36.90;55.10;;;;;;1794523;78;21138;-80
2023/05/04 08:39:21;;;;;;;15.53;13.50;;;36.90;54.90;;;;;;1878519;75;21090;-82
2023/05/04 08:41:53;;;;;;;25.57;14.20;;;36.90;54.90;;;;;;1911552;74;21178;-83
2023/05/04 08:44:28;;;;;;;22.77;15.03;;;36.90;54.90;;;;;;1905185;75;21209;-83
2023/05/04 08:46:59;;;;;;;18.73;13.10;;;36.90;54.70;;;;;;1874538;76;21122;-84
2023/05/04 08:49:31;;;;;;;18.15;13.25;;;36.90;54.40;;;;;;1857271;76;21138;-83
2023/05/04 08:52:05;;;;;;;17.98;12.30;;;36.90;54.70;;;;;;1828170;77;21075;-83
2023/05/04 08:54:42;;;;;;;13.20;11.80;;;36.90;54.90;;;;;;1809514;78;21195;-82
2023/05/04 08:57:15;;;;;;;20.00;13.38;;;36.90;55.50;;;;;;1873091;76;21193;-84
2023/05/04 08:59:48;;;;;;;15.58;12.30;;;36.90;55.00;;;;;;1874596;76;21150;-83
2023/05/04 09:02:23;;;;;;;18.20;14.07;;;36.90;54.80;;;;;;1881550;76;21119;-84
2023/05/04 09:04:55;;;;;;;18.37;16.35;;;36.80;55.30;;;;;;1866914;75;21074;-83
2023/05/04 09:07:26;;;;;;;19.52;14.75;;;36.80;54.50;;;;;;1866695;76;21110;-82
2023/05/04 09:09:57;;;;;;;19.37;14.10;;;36.80;54.30;;;;;;1855923;77;21500;-83
2023/05/04 09:12:29;;;;;;;16.10;12.58;;;36.80;54.80;;;;;;1873639;76;21149;-82
2023/05/04 09:15:01;;;;;;;15.98;12.98;;;36.80;54.90;;;;;;1885420;76;21110;-82
2023/05/04 09:17:32;;;;;;;16.90;12.00;;;36.80;55.00;;;;;;1864208;76;21542;-82
2023/05/04 09:20:05;;;;;;;21.33;13.15;;;36.80;55.00;;;;;;1853851;77;22300;-82
2023/05/04 09:22:37;;;;;;;16.85;13.22;;;36.80;55.00;;;;;;1861628;76;21209;-83
2023/05/04 09:25:13;;;;;;;18.98;14.93;;;36.80;54.90;;;;;;1877869;76;21088;-83
2023/05/04 09:27:49;;;;;;;;;;;36.80;55.20;;;;;;1863443;76;21593;-83
2023/05/04 09:30:19;;;;;;;15.83;12.75;;;36.80;55.70;;;;;;1870863;76;20176;-83
2023/05/04 09:32:51;;;;;;;17.27;13.50;;;36.80;54.60;;;;;;1865388;75;21206;-83
2023/05/04 09:35:31;;;;;;;19.90;13.75;;;36.80;54.90;;;;;;1859199;75;21881;-84
2023/05/04 09:38:03;;;;;;;15.83;11.15;;;36.80;55.30;;;;;;1875614;75;21685;-83
2023/05/04 09:40:36;;;;;;;14.63;11.97;;;36.80;54.10;;;;;;1880683;75;21599;-83
2023/05/04 09:43:08;;;;;;;23.35;12.82;;;36.80;54.30;;;;;;1861298;75;21214;-82
2023/05/04 09:45:47;;;;;;;18.00;12.65;;;36.90;54.00;;;;;;1876199;75;21626;-83
2023/05/04 09:48:27;;;;;;;18.17;13.05;;;36.90;54.10;;;;;;1865395;75;21971;-83
2023/05/04 09:50:59;;;;;;;23.40;13.62;;;36.90;54.30;;;;;;1882463;75;21240;-81
2023/05/04 09:53:32;;;;;;;16.12;12.53;;;36.90;54.30;;;;;;1866852;76;21201;-82
2023/05/04 09:56:24;;;;;;;28.50;14.53;;;36.90;54.20;;;;;;1868451;76;22443;-83
2023/05/04 09:58:59;;;;;;;22.05;12.93;;;36.90;54.10;;;;;;1860874;76;21147;-82
2023/05/04 10:01:31;;;;;;;20.17;12.28;;;36.90;54.10;;;;;;1857256;76;21138;-82
2023/05/04 10:04:03;;;;;;;18.20;11.33;;;36.90;54.30;;;;;;1868512;76;21182;-82
2023/05/04 10:06:35;;;;;;;13.60;11.28;;;36.90;54.20;;;;;;1864850;76;21176;-83
2023/05/04 10:09:22;;;;;;;21.95;12.18;;;36.80;53.80;;;;;;1868923;76;21251;-84
2023/05/04 10:11:40;;;;;;;13.80;12.20;;;36.90;54.10;;;;;;1863898;76;21143;-82
2023/05/04 10:14:14;;;;;;;17.42;11.83;;;36.80;54.00;;;;;;1860662;76;21094;-83
2023/05/04 10:17:02;;;;;;;15.18;12.07;;;36.80;54.00;;;;;;1880960;76;21091;-83
2023/05/04 10:19:45;;;;;;;23.30;13.80;;;36.80;54.30;;;;;;1860428;76;21633;-83
2023/05/04 10:22:41;;;;;;;18.90;12.93;;;36.80;54.10;;;;;;1886445;76;21112;-82
2023/05/04 10:25:27;;;;;;;27.17;13.22;;;36.80;55.00;;;;;;1834209;76;21240;-82
2023/05/04 10:28:06;;;;;;;17.20;13.83;;;36.80;54.40;;;;;;1849591;76;21226;-83
2023/05/04 10:30:38;;;;;;;16.60;12.58;;;36.70;54.10;;;;;;1831732;77;21211;-81
2023/05/04 10:33:10;;;;;;;24.85;12.98;;;36.70;54.10;;;;;;1886766;76;21218;-83
2023/05/04 10:35:52;;;;;;;16.80;12.70;;;36.70;54.60;;;;;;1870181;76;21602;-83
2023/05/04 10:38:36;;;;;;;21.65;12.60;;;36.70;54.30;;;;;;1850622;76;21632;-83
2023/05/04 10:41:17;;;;;;;18.10;13.38;;;36.60;54.40;;;;;;1865675;76;21127;-84
2023/05/04 10:43:51;;;;;;;14.78;12.40;;;36.60;54.60;;;;;;1878046;76;21743;-84
2023/05/04 10:46:21;;;;;;;18.40;12.43;;;36.60;54.80;;;;;;1873238;76;21211;-83
2023/05/04 10:48:53;;;;;;;18.40;12.45;;;36.60;54.80;;;;;;1867282;76;21228;-82
2023/05/04 10:51:25;;;;;;;15.30;11.40;;;36.50;54.70;;;;;;1814253;77;21130;-83
2023/05/04 10:54:00;;;;;;;19.48;12.25;;;36.50;54.60;;;;;;1841586;76;21609;-83
2023/05/04 10:56:30;;;;;;;16.93;13.53;;;36.50;54.60;;;;;;1861403;76;21211;-83
2023/05/04 10:59:03;;;;;;;16.80;12.20;;;36.40;54.70;;;;;;1857050;75;21169;-83
2023/05/04 11:01:37;;;;;;;15.95;11.85;;;36.40;54.80;;;;;;1861038;76;21479;-82
2023/05/04 11:04:09;;;;;;;21.60;13.00;;;36.40;54.80;;;;;;1871234;76;21189;-83
2023/05/04 11:06:40;;;;;;;14.83;12.55;;;36.40;55.20;;;;;;1852630;77;21151;-83
2023/05/04 11:09:12;;;;;;;25.27;14.07;;;36.40;55.40;;;;;;1857899;75;21071;-74
2023/05/04 11:11:45;;;;;;;18.10;13.48;;;36.30;55.40;;;;;;1855590;76;21119;-76
2023/05/04 11:14:25;;;;;;;19.77;14.05;;;36.30;55.60;;;;;;1851902;77;21167;-77
2023/05/04 11:17:13;;;;;;;24.20;13.65;;;36.30;55.40;;;;;;1867985;76;21133;-75
2023/05/04 11:19:49;;;;;;;18.02;13.43;;;36.30;55.40;;;;;;1867412;76;21151;-75
2023/05/04 11:22:21;;;;;;;21.45;14.05;;;36.30;55.60;;;;;;1858676;76;21142;-74
2023/05/04 11:24:52;;;;;;;52.43;17.65;;;36.30;55.60;;;;;;1864052;76;21228;-75
2023/05/04 11:27:29;;;;;;;35.58;22.10;;;36.20;55.90;;;;;;1854941;76;21071;-76
2023/05/04 11:30:04;;;;;;;33.78;17.98;;;36.20;55.80;;;;;;1860227;76;21217;-75
2023/05/04 11:32:45;;;;;;;27.77;18.55;;;36.20;55.80;;;;;;1856803;76;21604;-76
2023/05/04 11:35:18;;;;;;;26.25;17.45;;;36.20;56.00;;;;;;1854371;75;21166;-76
2023/05/04 11:37:50;;;;;;;27.13;17.98;;;36.10;56.20;;;;;;1854203;75;21668;-74
2023/05/04 11:40:23;;;;;;;26.57;18.75;;;36.00;56.80;;;;;;1851026;77;21142;-76
2023/05/04 11:42:56;;;;;;;23.05;16.15;;;36.00;57.30;;;;;;1856229;76;21224;-74
2023/05/04 11:45:39;;;;;;;25.05;16.00;;;35.90;58.00;;;;;;1863276;76;21542;-74
2023/05/04 11:48:10;;;;;;;28.32;19.15;;;35.80;58.70;;;;;;1852886;76;21171;-74
2023/05/04 11:50:42;;;;;;;26.37;17.90;;;35.60;59.30;;;;;;1853124;77;21099;-75
2023/05/04 11:53:20;;;;;;;22.75;17.42;;;35.60;60.20;;;;;;1859664;75;21730;-77
2023/05/04 11:55:47;;;;;;;24.95;18.07;;;35.50;60.70;;;;;;1868372;76;21169;-77
2023/05/04 11:58:21;;;;;;;25.45;17.65;;;35.40;61.10;;;;;;1796622;78;21561;-77
2023/05/04 12:00:57;;;;;;;38.75;20.35;;;35.30;61.50;;;;;;1799619;78;21101;-75
2023/05/04 12:03:33;;;;;;;35.78;21.33;;;35.10;62.10;;;;;;1870825;75;21633;-75
2023/05/04 12:06:06;;;;;;;21.45;14.45;;;35.00;62.30;;;;;;1796599;80;21082;-76
2023/05/04 12:08:43;;;;;;;20.32;14.78;;;34.90;62.90;;;;;;1821439;78;21198;-76
2023/05/04 12:11:15;;;;;;;;;;;34.80;63.20;;;;;;1876608;75;21181;-76
2023/05/04 12:13:48;;;;;;;21.10;14.53;;;34.70;63.60;;;;;;1868982;77;20232;-77
2023/05/04 12:16:20;;;;;;;26.57;16.50;;;34.70;64.00;;;;;;1868603;77;21075;-75
2023/05/04 12:18:54;;;;;;;19.60;15.75;;;34.60;64.40;;;;;;1875015;75;21139;-77
2023/05/04 12:21:25;;;;;;;20.68;14.65;;;34.50;64.60;;;;;;1837391;76;21689;-75
2023/05/04 12:24:00;;;;;;;21.07;15.25;;;34.50;64.90;;;;;;1825891;78;21211;-74
2023/05/04 12:26:31;;;;;;;19.25;14.75;;;34.40;65.10;;;;;;1871937;76;21816;-74
2023/05/04 12:29:02;;;;;;;23.70;15.60;;;34.40;65.30;;;;;;1796242;80;21761;-74
2023/05/04 12:31:34;;;;;;;22.05;16.70;;;34.30;65.50;;;;;;1797484;78;21247;-74
2023/05/04 12:34:05;;;;;;;19.25;14.75;;;34.30;65.50;;;;;;1878890;75;21640;-75
2023/05/04 12:36:36;;;;;;;23.22;16.40;;;34.20;65.60;;;;;;1872216;75;21142;-75
2023/05/04 12:39:08;;;;;;;21.90;15.83;;;34.20;66.00;;;;;;1832611;78;21093;-75
2023/05/04 12:41:39;;;;;;;25.50;19.17;;;34.30;66.40;;;;;;1837325;78;21646;-74
2023/05/04 12:44:12;;;;;;;33.05;21.12;;;34.20;66.40;;;;;;1825980;78;21143;-75
2023/05/04 12:46:43;;;;;;;28.75;18.62;;;34.20;66.50;;;;;;1827996;78;21149;-75
2023/05/04 12:49:15;;;;;;;25.25;16.52;;;34.30;67.60;;;;;;1864932;75;21205;-75
2023/05/04 12:51:47;;;;;;;24.18;15.85;;;34.30;66.30;;;;;;1874290;75;21182;-75
2023/05/04 12:54:20;;;;;;;20.88;15.55;;;34.30;66.10;;;;;;1867495;76;21224;-77
2023/05/04 12:56:52;;;;;;;26.77;16.67;;;34.30;66.10;;;;;;1849690;76;21278;-75